Time;durP1;ratioP1;P1;durP2;ratioP2;P2;SDS_P1;SDS_P2;PMS_P1;PMS_P2;Temp;Humidity;BMP_temperature;BMP_pressure;BME280_temperature;BME280_humidity;BME280_pressure;Samples;Min_cycle;Max_cycle;Signal;HPM_P1;HPM_P2
2021/05/19 00:00:55;;;;;;;;;;;;;;;13.55;94.71;97799.50;3455414;28;20023;-43
2021/05/19 00:02:37;;;;;;;;;;;;;;;13.56;94.85;97800.34;3455717;28;19930;-43
2021/05/19 00:04:18;;;;;;;;;;;;;;;13.57;94.72;97802.91;3455607;28;19933;-43
2021/05/19 00:05:59;;;;;;;;;;;;;;;13.56;94.63;97801.19;3454232;28;19964;-43
2021/05/19 00:07:40;;;;;;;;;;;;;;;13.55;94.57;97803.84;3455516;28;19936;-43
2021/05/19 00:09:22;;;;;;;;;;;;;;;13.56;94.57;97802.94;3454698;28;20015;-43
2021/05/19 00:11:03;;;;;;;;;;;;;;;13.54;94.14;97799.53;3454757;28;19930;-43
2021/05/19 00:12:44;;;;;;;;;;;;;;;13.54;93.89;97807.34;3454254;28;20403;-43
2021/05/19 00:14:25;;;;;;;;;;;;;;;13.51;93.54;97800.47;3453115;28;19979;-43
2021/05/19 00:16:07;;;;;;;;;;;;;;;13.48;93.25;97800.56;3441841;28;19965;-43
2021/05/19 00:17:48;;;;;;;;;;;;;;;13.48;93.39;97792.75;3450819;28;19964;-43
2021/05/19 00:19:29;;;;;;;;;;;;;;;13.49;93.93;97800.53;3455517;28;20410;-43
2021/05/19 00:21:10;;;;;;;;;;;;;;;13.50;94.00;97799.63;3455406;28;20426;-43
2021/05/19 00:22:52;;;;;;;;;;;;;;;13.49;94.37;97799.66;3454715;28;20390;-43
2021/05/19 00:24:33;;;;;;;;;;;;;;;13.49;94.38;97794.44;3454944;28;19929;-43
2021/05/19 00:26:14;;;;;;;;;;;;;;;13.49;94.62;97791.84;3455695;28;19930;-43
2021/05/19 00:27:55;;;;;;;;;;;;;;;13.49;94.91;97797.06;3455668;28;19933;-44
2021/05/19 00:29:37;;;;;;;;;;;;;;;13.50;95.24;97797.00;3455476;28;20396;-43
2021/05/19 00:31:21;;;;;;;;;;;;;;;13.50;95.21;97802.22;3455739;28;19972;-43
2021/05/19 00:33:02;;;;;;;;;;;;;;;13.49;95.29;97795.31;3457981;28;19937;-43
2021/05/19 00:34:44;;;;;;;;;;;;;;;13.50;95.44;97798.78;3458586;28;20261;-45
2021/05/19 00:36:25;;;;;;;;;;;;;;;13.50;95.38;97801.38;3457364;28;19958;-43
2021/05/19 00:38:06;;;;;;;;;;;;;;;13.48;95.41;97801.41;3455370;28;19968;-43
2021/05/19 00:39:47;;;;;;;;;;;;;;;13.48;95.61;97791.00;3457469;28;20032;-43
2021/05/19 00:41:29;;;;;;;;;;;;;;;13.47;95.71;97788.44;3456673;28;19930;-43
2021/05/19 00:43:10;;;;;;;;;;;;;;;13.47;95.79;97788.44;3457652;28;19992;-43
2021/05/19 00:44:51;;;;;;;;;;;;;;;13.46;95.96;97778.94;3456551;28;20016;-43
2021/05/19 00:46:33;;;;;;;;;;;;;;;13.44;96.09;97776.38;3457095;28;19929;-43
2021/05/19 00:48:14;;;;;;;;;;;;;;;13.46;96.20;97779.78;3457551;28;19987;-48
2021/05/19 00:49:56;;;;;;;;;;;;;;;13.48;96.25;97779.72;3456522;28;19937;-49
2021/05/19 00:51:37;;;;;;;;;;;;;;;13.47;96.45;97776.25;3457491;28;19968;-49
2021/05/19 00:53:18;;;;;;;;;;;;;;;13.48;96.12;97784.94;3457681;28;19972;-50
2021/05/19 00:55:00;;;;;;;;;;;;;;;13.48;96.38;97779.72;3457683;28;19983;-49
2021/05/19 00:56:41;;;;;;;;;;;;;;;13.48;96.28;97784.94;3456436;28;20489;-48
2021/05/19 00:58:22;;;;;;;;;;;;;;;13.47;96.38;97780.63;3457233;28;19945;-43
2021/05/19 01:00:04;;;;;;;;;;;;;;;13.48;96.27;97784.94;3456901;28;19934;-44
2021/05/19 01:01:46;;;;;;;;;;;;;;;13.47;96.15;97786.66;3457970;28;19979;-43
2021/05/19 01:03:28;;;;;;;;;;;;;;;13.45;96.13;97793.69;3456581;28;20328;-44
2021/05/19 01:05:14;;;;;;;;;;;;;;;13.47;96.20;97788.44;3456457;28;19931;-43
2021/05/19 01:06:58;;;;;;;;;;;;;;;13.46;96.09;97789.34;3457793;28;20239;-43
2021/05/19 01:10:39;;;;;;;;;;;;;;;13.45;96.26;97787.63;3456785;28;19929;-48
2021/05/19 01:12:21;;;;;;;;;;;;;;;13.46;96.28;97784.97;3456378;28;19976;-43
2021/05/19 01:14:02;;;;;;;;;;;;;;;13.46;96.33;97789.34;3454651;28;20303;-43
2021/05/19 01:15:44;;;;;;;;;;;;;;;13.45;96.45;97790.22;3457387;28;20302;-43
2021/05/19 01:17:26;;;;;;;;;;;;;;;13.45;96.20;97790.22;3456020;28;20406;-43
2021/05/19 01:19:08;;;;;;;;;;;;;;;13.43;96.41;97795.47;3456727;28;19929;-43
2021/05/19 01:20:49;;;;;;;;;;;;;;;13.42;96.29;97790.31;3456921;28;19936;-51
2021/05/19 01:22:30;;;;;;;;;;;;;;;13.43;96.58;97787.66;3457651;28;19936;-48
2021/05/19 01:24:12;;;;;;;;;;;;;;;13.40;96.49;97790.34;3457280;28;19937;-50
2021/05/19 01:25:54;;;;;;;;;;;;;;;13.39;96.58;97795.59;3457370;28;20306;-48
2021/05/19 01:27:36;;;;;;;;;;;;;;;13.38;96.75;97793.91;3457726;28;19930;-49
2021/05/19 01:29:17;;;;;;;;;;;;;;;13.37;96.67;97789.59;3455954;28;20574;-48
2021/05/19 01:30:58;;;;;;;;;;;;;;;13.38;96.78;97796.50;3458004;28;20036;-48
2021/05/19 01:32:39;;;;;;;;;;;;;;;13.37;96.67;97790.47;3456509;28;19980;-50
2021/05/19 01:34:21;;;;;;;;;;;;;;;13.36;96.98;97791.34;3455760;28;19972;-49
2021/05/19 01:36:02;;;;;;;;;;;;;;;13.36;96.80;97793.09;3457066;28;19930;-48
2021/05/19 01:37:45;;;;;;;;;;;;;;;13.35;96.90;97796.59;3457618;28;19930;-49
2021/05/19 01:39:26;;;;;;;;;;;;;;;13.33;96.90;97797.50;3457238;28;19971;-50
2021/05/19 01:41:07;;;;;;;;;;;;;;;13.32;96.81;97802.75;3455762;28;19937;-49
2021/05/19 01:42:49;;;;;;;;;;;;;;;13.29;96.85;97793.25;3457601;28;20410;-48
2021/05/19 01:44:31;;;;;;;;;;;;;;;13.29;96.92;97795.88;3456378;28;19933;-48
2021/05/19 01:46:12;;;;;;;;;;;;;;;13.27;96.91;97794.22;3457172;28;19933;-49
2021/05/19 01:47:54;;;;;;;;;;;;;;;13.26;96.92;97798.53;3456874;28;20355;-49
2021/05/19 01:49:37;;;;;;;;;;;;;;;13.26;96.87;97803.75;3456019;28;19929;-51
2021/05/19 01:51:19;;;;;;;;;;;;;;;13.25;96.79;97804.66;3457139;28;19969;-49
2021/05/19 01:53:02;;;;;;;;;;;;;;;13.25;96.75;97804.66;3457258;28;19969;-49
2021/05/19 01:54:44;;;;;;;;;;;;;;;13.24;96.90;97805.53;3456371;28;20025;-51
2021/05/19 01:56:25;;;;;;;;;;;;;;;13.24;96.99;97796.88;3456293;28;19937;-49
2021/05/19 01:58:06;;;;;;;;;;;;;;;13.23;96.78;97800.38;3457470;28;19937;-49
2021/05/19 01:59:48;;;;;;;;;;;;;;;13.22;96.90;97799.53;3456681;28;19996;-50
2021/05/19 02:01:29;;;;;;;;;;;;;;;13.21;96.81;97802.19;3455697;28;20023;-50
2021/05/19 02:03:10;;;;;;;;;;;;;;;13.20;96.79;97800.47;3456766;28;19937;-49
2021/05/19 02:04:52;;;;;;;;;;;;;;;13.17;96.75;97804.00;3457147;28;19987;-48
2021/05/19 02:06:43;;;;;;;;;;;;;;;13.14;96.77;97804.09;3456216;28;20291;-50
2021/05/19 02:08:25;;;;;;;;;;;;;;;13.13;96.90;97805.00;3456258;28;19929;-48
2021/05/19 02:10:07;;;;;;;;;;;;;;;13.13;96.80;97810.19;3455853;28;19933;-49
2021/05/19 02:11:48;;;;;;;;;;;;;;;13.12;96.99;97806.75;3456759;28;20011;-48
2021/05/19 02:13:29;;;;;;;;;;;;;;;13.12;97.06;97805.88;3456182;28;19976;-43
2021/05/19 02:15:11;;;;;;;;;;;;;;;13.12;96.85;97808.47;3456680;28;20044;-43
2021/05/19 02:16:52;;;;;;;;;;;;;;;13.12;96.92;97811.09;3455368;28;19929;-43
2021/05/19 02:18:34;;;;;;;;;;;;;;;13.12;97.12;97813.69;3457431;28;19936;-42
2021/05/19 02:20:16;;;;;;;;;;;;;;;13.13;97.25;97811.03;3456344;28;19930;-43
2021/05/19 02:21:57;;;;;;;;;;;;;;;13.14;97.26;97812.78;3454635;28;19937;-48
2021/05/19 02:23:39;;;;;;;;;;;;;;;13.17;97.41;97814.41;3456631;28;20354;-49
2021/05/19 02:25:21;;;;;;;;;;;;;;;13.19;97.59;97819.59;3456856;28;19975;-48
2021/05/19 02:27:02;;;;;;;;;;;;;;;13.21;97.42;97820.41;3456540;28;20410;-49
2021/05/19 02:28:43;;;;;;;;;;;;;;;13.22;97.64;97820.38;3455429;28;19972;-50
2021/05/19 02:30:25;;;;;;;;;;;;;;;13.25;97.78;97819.44;3453221;28;19938;-49
2021/05/19 02:32:07;;;;;;;;;;;;;;;13.28;97.81;97822.81;3443539;28;19987;-48
2021/05/19 02:33:49;;;;;;;;;;;;;;;13.31;97.99;97825.31;3455670;28;19984;-49
2021/05/19 02:35:30;;;;;;;;;;;;;;;13.33;97.93;97825.28;3456716;28;19964;-51
2021/05/19 02:37:11;;;;;;;;;;;;;;;13.36;97.92;97819.16;3455208;28;19929;-48
2021/05/19 02:38:53;;;;;;;;;;;;;;;13.37;98.16;97813.91;3456478;28;19936;-48
2021/05/19 02:40:34;;;;;;;;;;;;;;;13.40;98.24;97823.38;3456561;28;20492;-49
2021/05/19 02:42:15;;;;;;;;;;;;;;;13.40;98.11;97823.38;3456937;28;19983;-49
2021/05/19 02:43:56;;;;;;;;;;;;;;;13.41;98.22;97827.69;3455984;28;20034;-50
2021/05/19 02:45:38;;;;;;;;;;;;;;;13.42;98.21;97822.41;3455285;28;19936;-48
2021/05/19 02:47:19;;;;;;;;;;;;;;;13.43;98.36;97823.28;3456456;28;19937;-48
2021/05/19 02:49:01;;;;;;;;;;;;;;;13.45;98.40;97818.88;3455163;28;19987;-49
2021/05/19 02:50:43;;;;;;;;;;;;;;;13.46;98.61;97826.66;3456393;28;20565;-47
2021/05/19 02:52:24;;;;;;;;;;;;;;;13.47;98.70;97824.91;3456371;28;20418;-49
2021/05/19 02:54:08;;;;;;;;;;;;;;;13.48;98.73;97829.22;3455770;28;20067;-52
2021/05/19 02:55:49;;;;;;;;;;;;;;;13.48;98.66;97830.06;3454141;28;20375;-50
2021/05/19 02:57:30;;;;;;;;;;;;;;;13.49;98.75;97828.31;3455056;28;19929;-48
2021/05/19 02:59:11;;;;;;;;;;;;;;;13.51;98.86;97823.91;3456695;28;19969;-51
2021/05/19 03:00:53;;;;;;;;;;;;;;;13.51;99.07;97826.50;3454918;28;19999;-48
2021/05/19 03:02:34;;;;;;;;;;;;;;;13.52;99.06;97828.22;3456342;28;19964;-49
2021/05/19 03:04:15;;;;;;;;;;;;;;;13.52;99.27;97826.47;3456182;28;20388;-48
2021/05/19 03:05:56;;;;;;;;;;;;;;;13.54;99.27;97823.00;3456831;28;19981;-48
2021/05/19 03:07:37;;;;;;;;;;;;;;;13.55;99.24;97825.56;3455831;28;19964;-49
2021/05/19 03:09:19;;;;;;;;;;;;;;;13.58;99.39;97827.19;3455044;28;19968;-51
2021/05/19 03:11:01;;;;;;;;;;;;;;;13.58;99.43;97828.03;3455463;28;19957;-43
2021/05/19 03:12:42;;;;;;;;;;;;;;;13.59;99.26;97828.94;3455426;28;19936;-43
2021/05/19 03:14:23;;;;;;;;;;;;;;;13.57;99.07;97835.94;3454896;28;19973;-42
2021/05/19 03:16:05;;;;;;;;;;;;;;;13.56;98.77;97834.22;3454609;28;19965;-43
2021/05/19 03:17:47;;;;;;;;;;;;;;;13.54;98.63;97836.84;3457029;28;19933;-48
2021/05/19 03:19:29;;;;;;;;;;;;;;;13.55;98.59;97842.91;3455828;28;20327;-42
2021/05/19 03:21:10;;;;;;;;;;;;;;;13.54;98.23;97847.28;3455240;28;19929;-43
2021/05/19 03:22:51;;;;;;;;;;;;;;;13.55;97.85;97840.31;3456018;28;19930;-43
2021/05/19 03:24:33;;;;;;;;;;;;;;;13.54;97.80;97839.47;3456108;28;20434;-43
2021/05/19 03:26:14;;;;;;;;;;;;;;;13.56;97.88;97840.25;3456096;28;19929;-49
2021/05/19 03:27:55;;;;;;;;;;;;;;;13.57;97.75;97841.16;3444169;28;19965;-50
2021/05/19 03:29:37;;;;;;;;;;;;;;;13.61;97.76;97853.19;3452961;28;19934;-49
2021/05/19 03:31:19;;;;;;;;;;;;;;;13.63;97.98;97841.81;3455390;28;19936;-50
2021/05/19 03:33:00;;;;;;;;;;;;;;;13.66;98.16;97838.28;3455304;28;19929;-48
2021/05/19 03:34:41;;;;;;;;;;;;;;;13.67;98.06;97839.97;3455816;28;19960;-50
2021/05/19 03:36:22;;;;;;;;;;;;;;;13.66;97.55;97838.28;3456182;28;20318;-48
2021/05/19 03:38:03;;;;;;;;;;;;;;;13.68;97.94;97844.28;3455920;28;20402;-48
2021/05/19 03:39:45;;;;;;;;;;;;;;;13.70;98.06;97838.13;3454660;28;19936;-48
2021/05/19 03:41:26;;;;;;;;;;;;;;;13.73;97.88;97847.63;3456954;28;19929;-48
2021/05/19 03:43:08;;;;;;;;;;;;;;;13.74;97.83;97856.28;3455556;28;20318;-47
2021/05/19 03:44:49;;;;;;;;;;;;;;;13.74;97.60;97846.75;3456179;28;19929;-49
2021/05/19 03:46:30;;;;;;;;;;;;;;;13.75;97.72;97851.03;3456042;28;20464;-43
2021/05/19 03:48:11;;;;;;;;;;;;;;;13.78;97.70;97847.50;3454677;28;19937;-42
2021/05/19 03:49:52;;;;;;;;;;;;;;;13.80;97.76;97851.75;3455955;28;19929;-43
2021/05/19 03:51:34;;;;;;;;;;;;;;;13.83;97.94;97856.88;3454585;28;19975;-43
2021/05/19 03:53:15;;;;;;;;;;;;;;;13.84;98.27;97845.53;3456058;28;20282;-43
2021/05/19 03:54:57;;;;;;;;;;;;;;;13.87;98.33;97853.28;3455418;28;20398;-49
2021/05/19 03:56:38;;;;;;;;;;;;;;;13.88;98.14;97855.00;3455029;28;19976;-48
2021/05/19 03:58:19;;;;;;;;;;;;;;;13.87;97.81;97861.09;3455270;28;20048;-47
2021/05/19 04:00:01;;;;;;;;;;;;;;;13.87;97.37;97855.91;3456049;28;19930;-43
2021/05/19 04:01:42;;;;;;;;;;;;;;;13.87;97.25;97860.25;3442339;28;19976;-43
2021/05/19 04:03:25;;;;;;;;;;;;;;;13.88;97.19;97859.34;3453337;28;20103;-43
2021/05/19 04:05:07;;;;;;;;;;;;;;;13.91;97.02;97861.88;3455225;28;19940;-43
2021/05/19 04:06:48;;;;;;;;;;;;;;;13.93;97.17;97860.06;3454241;28;19964;-43
2021/05/19 04:08:33;;;;;;;;;;;;;;;13.96;97.37;97856.53;3454929;28;19929;-44
2021/05/19 04:10:15;;;;;;;;;;;;;;;13.97;96.97;97853.00;3454729;28;19930;-48
2021/05/19 04:11:56;;;;;;;;;;;;;;;13.98;96.82;97852.97;3455751;28;20338;-43
2021/05/19 04:13:38;;;;;;;;;;;;;;;14.00;97.06;97852.94;3454238;28;19972;-42
2021/05/19 04:15:20;;;;;;;;;;;;;;;14.02;96.95;97856.34;3443040;28;19930;-44
2021/05/19 04:17:01;;;;;;;;;;;;;;;14.02;96.67;97854.59;3454919;28;19976;-48
2021/05/19 04:18:42;;;;;;;;;;;;;;;14.03;96.82;97858.91;3453820;28;20165;-48
2021/05/19 04:20:23;;;;;;;;;;;;;;;14.05;96.86;97851.88;3455034;28;19929;-43
2021/05/19 04:22:04;;;;;;;;;;;;;;;14.09;97.13;97858.75;3455316;28;19968;-44
2021/05/19 04:23:46;;;;;;;;;;;;;;;14.11;97.26;97857.81;3447517;28;19930;-43
2021/05/19 04:25:27;;;;;;;;;;;;;;;14.14;97.52;97855.97;3449509;28;19929;-43
2021/05/19 04:27:08;;;;;;;;;;;;;;;14.19;97.46;97853.25;3455584;28;19929;-43
2021/05/19 04:28:50;;;;;;;;;;;;;;;14.21;97.39;97857.50;3454935;28;19991;-44
2021/05/19 04:30:31;;;;;;;;;;;;;;;14.22;97.62;97853.16;3454599;28;19937;-43
2021/05/19 04:32:13;;;;;;;;;;;;;;;14.24;97.34;97862.63;3454360;28;20410;-43
2021/05/19 04:33:54;;;;;;;;;;;;;;;14.26;97.70;97855.59;3454943;28;20472;-43
2021/05/19 04:35:35;;;;;;;;;;;;;;;14.27;97.68;97854.72;3454308;28;19972;-43
2021/05/19 04:37:16;;;;;;;;;;;;;;;14.32;97.61;97856.34;3455246;28;19929;-43
2021/05/19 04:38:58;;;;;;;;;;;;;;;14.33;97.77;97851.09;3454338;28;19983;-48
2021/05/19 04:40:40;;;;;;;;;;;;;;;14.35;97.74;97856.25;3454827;28;20425;-49
2021/05/19 04:42:21;;;;;;;;;;;;;;;14.38;97.62;97856.19;3454561;28;19992;-50
2021/05/19 04:44:03;;;;;;;;;;;;;;;14.43;97.79;97856.91;3454302;28;20375;-49
2021/05/19 04:45:44;;;;;;;;;;;;;;;14.48;97.87;97857.56;3455107;28;19930;-47
2021/05/19 04:47:26;;;;;;;;;;;;;;;14.55;97.98;97858.25;3454427;28;19930;-45
2021/05/19 04:49:07;;;;;;;;;;;;;;;14.63;98.18;97851.88;3455434;28;19929;-45
2021/05/19 04:50:48;;;;;;;;;;;;;;;14.75;98.04;97852.41;3453915;28;20383;-44
2021/05/19 04:52:29;;;;;;;;;;;;;;;14.93;98.67;97853.56;3454992;28;19977;-44
2021/05/19 04:54:10;;;;;;;;;;;;;;;15.12;98.93;97853.78;3454225;28;20417;-43
2021/05/19 04:55:53;;;;;;;;;;;;;;;15.31;99.23;97849.63;3455493;28;19929;-43
2021/05/19 04:57:34;;;;;;;;;;;;;;;15.59;99.79;97851.28;3453950;28;19933;-43
2021/05/19 04:59:15;;;;;;;;;;;;;;;15.90;100.00;97848.41;3454274;28;19964;-47
2021/05/19 05:00:56;;;;;;;;;;;;;;;16.16;100.00;97846.59;3455048;28;20387;-48
2021/05/19 05:02:38;;;;;;;;;;;;;;;16.44;100.00;97851.59;3455446;28;20000;-49
2021/05/19 05:04:19;;;;;;;;;;;;;;;16.59;99.12;97844.03;3455307;28;20464;-44
2021/05/19 05:06:00;;;;;;;;;;;;;;;16.68;97.75;97849.75;3453998;28;19975;-54
2021/05/19 05:07:41;;;;;;;;;;;;;;;16.68;95.22;97847.13;3454417;28;19931;-56
2021/05/19 05:09:22;;;;;;;;;;;;;;;16.62;94.32;97851.75;3454829;28;19929;-57
2021/05/19 05:11:04;;;;;;;;;;;;;;;16.57;94.23;97851.97;3453788;28;20310;-57
2021/05/19 05:12:47;;;;;;;;;;;;;;;16.46;92.57;97847.16;3454981;28;20036;-53
2021/05/19 05:14:28;;;;;;;;;;;;;;;16.36;91.76;97851.03;3452647;28;20047;-43
2021/05/19 05:16:09;;;;;;;;;;;;;;;16.29;91.51;97850.41;3454886;28;19930;-43
2021/05/19 05:17:50;;;;;;;;;;;;;;;16.21;91.54;97857.69;3453771;28;20318;-44
2021/05/19 05:19:31;;;;;;;;;;;;;;;16.07;90.33;97846.91;3454690;28;19936;-51
2021/05/19 05:21:13;;;;;;;;;;;;;;;15.98;90.80;97851.59;3446615;28;20357;-53
2021/05/19 05:22:54;;;;;;;;;;;;;;;15.94;90.96;97854.38;3457696;28;19968;-51
2021/05/19 05:24:35;;;;;;;;;;;;;;;15.79;90.20;97848.81;3457210;28;19936;-50
2021/05/19 05:26:18;;;;;;;;;;;;;;;15.72;91.32;97852.56;3455792;28;20052;-54
2021/05/19 05:28:00;;;;;;;;;;;;;;;15.72;92.29;97854.34;3457347;28;20009;-51
2021/05/19 05:29:41;;;;;;;;;;;;;;;15.75;92.88;97860.31;3456739;28;19936;-44
2021/05/19 05:31:22;;;;;;;;;;;;;;;15.81;93.24;97858.34;3456398;28;19933;-50
2021/05/19 05:33:03;;;;;;;;;;;;;;;15.83;92.58;97860.00;3456809;28;20023;-50
2021/05/19 05:34:44;;;;;;;;;;;;;;;15.83;90.43;97854.78;3456929;28;19937;-52
2021/05/19 05:36:26;;;;;;;;;;;;;;;15.86;91.17;97859.91;3457059;28;20302;-54
2021/05/19 05:38:07;;;;;;;;;;;;;;;15.89;91.04;97862.38;3457463;28;19930;-44
2021/05/19 05:39:48;;;;;;;;;;;;;;;15.87;90.81;97861.59;3457523;28;19933;-44
2021/05/19 05:41:30;;;;;;;;;;;;;;;15.89;90.80;97859.75;3457507;28;20151;-44
2021/05/19 05:43:11;;;;;;;;;;;;;;;15.93;90.96;97863.13;3456462;28;20025;-45
2021/05/19 05:44:53;;;;;;;;;;;;;;;15.94;90.84;97865.69;3455969;28;19956;-48
2021/05/19 05:46:34;;;;;;;;;;;;;;;15.95;90.01;97862.16;3456260;28;19930;-45
2021/05/19 05:48:15;;;;;;;;;;;;;;;15.97;90.25;97862.97;3456043;28;19929;-44
2021/05/19 05:49:58;;;;;;;;;;;;;;;15.97;89.29;97864.72;3456282;28;19930;-50
2021/05/19 05:51:39;;;;;;;;;;;;;;;15.98;89.10;97871.66;3456998;28;19983;-51
2021/05/19 05:53:20;;;;;;;;;;;;;;;15.97;88.66;97869.97;3457236;28;20386;-44
2021/05/19 05:55:01;;;;;;;;;;;;;;;15.98;89.45;97869.91;3457640;28;19933;-44
2021/05/19 05:56:43;;;;;;;;;;;;;;;16.03;89.47;97867.09;3456420;28;19952;-44
2021/05/19 05:58:24;;;;;;;;;;;;;;;16.07;88.63;97870.44;3456295;28;19929;-44
2021/05/19 06:00:07;;;;;;;;;;;;;;;16.11;88.36;97869.44;3456847;28;20003;-52
2021/05/19 06:01:48;;;;;;;;;;;;;;;16.17;88.21;97877.06;3457212;28;19996;-43
2021/05/19 06:03:29;;;;;;;;;;;;;;;16.20;87.97;97869.09;3457615;28;19929;-52
2021/05/19 06:05:11;;;;;;;;;;;;;;;16.21;86.31;97873.41;3456907;28;19937;-51
2021/05/19 06:06:52;;;;;;;;;;;;;;;16.22;86.63;97875.13;3457197;28;19977;-51
2021/05/19 06:08:34;;;;;;;;;;;;;;;16.25;86.00;97876.78;3456232;28;19936;-49
2021/05/19 06:10:18;;;;;;;;;;;;;;;16.18;83.88;97881.38;3457745;28;19936;-43
2021/05/19 06:12:00;;;;;;;;;;;;;;;16.14;83.19;97885.00;3455873;28;20024;-50
2021/05/19 06:13:41;;;;;;;;;;;;;;;16.08;83.51;97882.63;3455841;28;20314;-43
2021/05/19 06:15:22;;;;;;;;;;;;;;;16.10;84.34;97880.81;3456642;28;19930;-43
2021/05/19 06:17:03;;;;;;;;;;;;;;;16.11;84.53;97880.75;3444653;28;19937;-43
2021/05/19 06:18:45;;;;;;;;;;;;;;;16.15;83.91;97878.88;3454410;28;19930;-43
2021/05/19 06:20:26;;;;;;;;;;;;;;;16.23;84.63;97881.19;3455992;28;19929;-44
2021/05/19 06:22:07;;;;;;;;;;;;;;;16.28;82.90;97874.03;3457144;28;19938;-49
2021/05/19 06:23:48;;;;;;;;;;;;;;;16.35;82.33;97883.34;3456678;28;20306;-49
2021/05/19 06:25:30;;;;;;;;;;;;;;;16.39;82.15;97882.34;3455616;28;19929;-50
2021/05/19 06:27:11;;;;;;;;;;;;;;;16.47;81.75;97882.03;3456968;28;19983;-50
2021/05/19 06:28:53;;;;;;;;;;;;;;;16.60;81.85;97883.25;3455277;28;20359;-48
2021/05/19 06:30:34;;;;;;;;;;;;;;;16.69;79.85;97885.50;3457517;28;19976;-44
2021/05/19 06:32:16;;;;;;;;;;;;;;;16.82;80.18;97885.03;3456035;28;19991;-43
2021/05/19 06:33:57;;;;;;;;;;;;;;;16.93;80.48;97885.44;3456713;28;19929;-43
2021/05/19 06:35:39;;;;;;;;;;;;;;;17.04;78.96;97882.38;3456723;28;19985;-43
2021/05/19 06:37:20;;;;;;;;;;;;;;;17.17;80.28;97886.22;3455736;28;20075;-50
2021/05/19 06:39:03;;;;;;;;;;;;;;;17.29;78.85;97887.47;3456711;28;20036;-48
2021/05/19 06:40:44;;;;;;;;;;;;;;;17.41;79.92;97891.31;3455362;28;20027;-49
2021/05/19 06:42:26;;;;;;;;;;;;;;;17.51;78.27;97897.03;3456237;28;19937;-49
2021/05/19 06:44:07;;;;;;;;;;;;;;;17.64;79.16;97903.44;3455922;28;19929;-50
2021/05/19 06:45:49;;;;;;;;;;;;;;;17.76;80.07;97887.16;3457089;28;19933;-43
2021/05/19 06:47:30;;;;;;;;;;;;;;;17.86;78.77;97895.53;3456490;28;19991;-43
2021/05/19 06:49:11;;;;;;;;;;;;;;;17.92;79.24;97897.84;3455012;28;20043;-44
2021/05/19 06:50:52;;;;;;;;;;;;;;;18.05;81.57;97898.19;3456268;28;19929;-44
2021/05/19 06:52:34;;;;;;;;;;;;;;;18.15;75.91;97898.59;3456724;28;19960;-44
2021/05/19 06:54:15;;;;;;;;;;;;;;;18.21;75.79;97901.81;3456962;28;19972;-43
2021/05/19 06:55:57;;;;;;;;;;;;;;;18.30;77.88;97912.81;3455572;28;19929;-43
2021/05/19 06:57:39;;;;;;;;;;;;;;;18.36;78.79;97908.09;3456610;28;20457;-44
2021/05/19 06:59:21;;;;;;;;;;;;;;;18.40;77.86;97911.44;3455337;28;20418;-48
2021/05/19 07:01:03;;;;;;;;;;;;;;;18.44;78.09;97918.28;3455028;28;19930;-48
2021/05/19 07:02:44;;;;;;;;;;;;;;;18.43;77.06;97913.94;3456543;28;19929;-51
2021/05/19 07:04:25;;;;;;;;;;;;;;;18.38;75.91;97911.53;3456230;28;19934;-48
2021/05/19 07:06:06;;;;;;;;;;;;;;;18.23;74.24;97920.09;3456037;28;19930;-47
2021/05/19 07:07:48;;;;;;;;;;;;;;;18.14;75.34;97921.38;3455256;28;19969;-51
2021/05/19 07:09:29;;;;;;;;;;;;;;;18.09;76.94;97925.13;3456715;28;19939;-48
2021/05/19 07:11:10;;;;;;;;;;;;;;;17.98;74.28;97923.00;3455623;28;19973;-49
2021/05/19 07:12:57;;;;;;;;;;;;;;;17.88;76.27;97929.56;3446914;28;19934;-43
2021/05/19 07:14:46;;;;;;;;;;;;;;;17.84;77.65;97928.84;3451794;28;19962;-44
2021/05/19 07:16:27;;;;;;;;;;;;;;;17.87;79.73;97939.19;3455066;28;20370;-49
2021/05/19 07:18:11;;;;;;;;;;;;;;;17.86;76.94;97927.84;3457153;28;19972;-49
2021/05/19 07:19:57;;;;;;;;;;;;;;;17.84;77.07;97929.69;3454366;28;19973;-44
2021/05/19 07:21:39;;;;;;;;;;;;;;;17.86;78.31;97933.09;3454814;28;19949;-44
2021/05/19 07:23:20;;;;;;;;;;;;;;;17.89;76.57;97923.38;3442452;28;20055;-44
2021/05/19 07:25:01;;;;;;;;;;;;;;;17.91;78.13;97927.66;3451132;28;19952;-44
2021/05/19 07:26:44;;;;;;;;;;;;;;;17.88;75.08;97929.56;3456009;28;19960;-44
2021/05/19 07:28:26;;;;;;;;;;;;;;;17.86;76.28;97927.84;3455033;28;19971;-47
2021/05/19 07:30:08;;;;;;;;;;;;;;;17.87;78.00;97941.81;3455034;28;19929;-48
2021/05/19 07:31:49;;;;;;;;;;;;;;;17.88;77.24;97927.78;3455875;28;19929;-44
2021/05/19 07:33:30;;;;;;;;;;;;;;;17.91;78.38;97925.03;3454991;28;19936;-44
2021/05/19 07:35:12;;;;;;;;;;;;;;;17.93;77.37;97930.22;3442345;28;20418;-46
2021/05/19 07:36:53;;;;;;;;;;;;;;;17.93;77.65;97931.06;3451138;28;19936;-44
2021/05/19 07:38:35;;;;;;;;;;;;;;;17.93;76.71;97928.44;3456056;28;19936;-44
2021/05/19 07:40:16;;;;;;;;;;;;;;;17.88;76.64;97925.16;3454750;28;20048;-47
2021/05/19 07:41:58;;;;;;;;;;;;;;;17.87;76.68;97928.69;3454290;28;19929;-47
2021/05/19 07:43:39;;;;;;;;;;;;;;;17.86;77.50;97938.34;3455607;28;20474;-49
2021/05/19 07:45:21;;;;;;;;;;;;;;;17.91;78.45;97939.94;3454681;28;19936;-49
2021/05/19 07:47:02;;;;;;;;;;;;;;;17.93;77.57;97945.94;3455813;28;19930;-49
2021/05/19 07:48:43;;;;;;;;;;;;;;;17.94;76.77;97943.28;3456075;28;19953;-48
2021/05/19 07:50:23;;;;;;;;;;;;;;;17.95;75.41;97941.50;3455805;28;20011;-49
2021/05/19 07:52:04;;;;;;;;;;;;;;;17.92;75.01;97941.63;3454820;28;20450;-50
2021/05/19 07:53:45;;;;;;;;;;;;;;;17.92;75.10;97947.69;3456494;28;19980;-48
2021/05/19 07:55:28;;;;;;;;;;;;;;;17.94;75.28;97938.03;3455510;28;19930;-48
2021/05/19 07:57:12;;;;;;;;;;;;;;;18.01;75.68;97946.44;3454465;28;19933;-47
2021/05/19 07:58:58;;;;;;;;;;;;;;;18.10;76.36;97948.69;3455601;28;20299;-48
2021/05/19 08:00:48;;;;;;;;;;;;;;;18.20;76.32;97949.13;3456075;28;19980;-49
2021/05/19 08:02:29;;;;;;;;;;;;;;;18.28;74.05;97954.00;3455836;28;20040;-47
2021/05/19 08:04:10;;;;;;;;;;;;;;;18.28;73.94;97957.50;3454670;28;20329;-48
2021/05/19 08:05:51;;;;;;;;;;;;;;;18.31;73.13;97957.38;3455984;28;19936;-49
2021/05/19 08:07:31;;;;;;;;;;;;;;;18.42;74.79;97954.25;3455341;28;19930;-48
2021/05/19 08:09:12;;;;;;;;;;;;;;;18.51;74.63;97956.44;3448657;28;19973;-45
2021/05/19 08:10:53;;;;;;;;;;;;;;;18.60;75.07;97956.00;3452628;28;19930;-46
2021/05/19 08:12:34;;;;;;;;;;;;;;;18.70;74.93;97951.19;3454310;28;20068;-48
2021/05/19 08:14:15;;;;;;;;;;;;;;;18.77;73.78;97954.34;3454239;28;19929;-45
2021/05/19 08:15:56;;;;;;;;;;;;;;;18.79;70.93;97958.63;3455081;28;20473;-45
2021/05/19 08:17:36;;;;;;;;;;;;;;;18.75;71.05;97958.84;3454909;28;20028;-49
2021/05/19 08:19:17;;;;;;;;;;;;;;;18.74;72.34;97962.41;3454331;28;19929;-47
2021/05/19 08:20:59;;;;;;;;;;;;;;;18.75;71.82;97957.09;3454353;28;19941;-47
2021/05/19 08:22:40;;;;;;;;;;;;;;;18.76;72.09;97956.16;3455709;28;19936;-49
2021/05/19 08:24:21;;;;;;;;;;;;;;;18.77;71.60;97963.13;3454522;28;19929;-44
2021/05/19 08:26:03;;;;;;;;;;;;;;;18.76;70.72;97955.31;3455344;28;19980;-45
2021/05/19 08:27:45;;;;;;;;;;;;;;;18.76;70.57;97963.19;3455710;28;19972;-45
2021/05/19 08:29:27;;;;;;;;;;;;;;;18.73;69.90;97961.53;3454996;28;19948;-47
2021/05/19 08:31:08;;;;;;;;;;;;;;;18.66;69.73;97957.50;3454747;28;19996;-48
2021/05/19 08:33:09;;;;;;;;;;;;;;;18.65;70.12;97966.31;3454004;28;20434;-47
2021/05/19 08:34:50;;;;;;;;;;;;;;;18.61;70.84;97967.38;3455239;28;19972;-47
2021/05/19 08:36:31;;;;;;;;;;;;;;;18.64;70.32;97967.22;3442064;28;19973;-46
2021/05/19 08:38:13;;;;;;;;;;;;;;;18.69;69.57;97965.25;3453993;28;19936;-45
2021/05/19 08:39:54;;;;;;;;;;;;;;;18.78;69.82;97964.81;3454765;28;19929;-45
2021/05/19 08:41:35;;;;;;;;;;;;;;;18.92;70.14;97966.81;3455659;28;19929;-45
2021/05/19 08:43:16;;;;;;;;;;;;;;;19.09;70.25;97959.88;3455244;28;19930;-47
2021/05/19 08:44:58;;;;;;;;;;;;;;;19.19;68.50;97961.16;3455521;28;19930;-47
2021/05/19 08:46:42;;;;;;;;;;;;;;;19.32;66.45;97969.31;3455267;28;19972;-47
2021/05/19 08:48:24;;;;;;;;;;;;;;;19.36;66.17;97955.91;3454227;28;19979;-47
2021/05/19 08:50:06;;;;;;;;;;;;;;;19.41;66.13;97968.00;3456264;28;19937;-47